Time;durP1;ratioP1;P1;durP2;ratioP2;P2;SDS_P1;SDS_P2;PMS_P1;PMS_P2;Temp;Humidity;BMP_temperature;BMP_pressure;BME280_temperature;BME280_humidity;BME280_pressure;Samples;Min_cycle;Max_cycle;Signal;HPM_P1;HPM_P2
2021/03/10 00:01:35;;;;;;;442.53;127.93;;;-2.60;99.90;;;;;;5016671;28;20276;-85
2021/03/10 00:04:01;;;;;;;423.33;132.30;;;-4.60;99.90;;;;;;5016878;28;20187;-86
2021/03/10 00:06:26;;;;;;;379.83;120.10;;;-4.60;99.90;;;;;;5016645;28;20220;-86
2021/03/10 00:08:52;;;;;;;386.80;116.17;;;-4.60;99.90;;;;;;5034076;28;20635;-86
2021/03/10 00:11:17;;;;;;;369.23;112.00;;;-4.70;99.90;;;;;;5033953;28;20183;-86
2021/03/10 00:13:43;;;;;;;356.93;106.87;;;-4.70;99.90;;;;;;5015949;28;20277;-85
2021/03/10 00:16:10;;;;;;;343.67;107.03;;;-4.70;99.90;;;;;;5034266;28;20217;-85
2021/03/10 00:18:35;;;;;;;408.08;134.73;;;-3.40;99.90;;;;;;5015598;28;20417;-85
2021/03/10 00:21:01;;;;;;;385.27;119.60;;;-4.80;99.90;;;;;;5033099;28;20177;-85
2021/03/10 00:23:26;;;;;;;404.80;124.87;;;-4.90;99.90;;;;;;5016363;28;20655;-87
2021/03/10 00:25:52;;;;;;;395.60;127.30;;;-4.90;99.90;;;;;;5015960;28;20229;-86
2021/03/10 00:28:18;;;;;;;394.50;127.03;;;-4.50;99.90;;;;;;5016315;28;20666;-86
2021/03/10 00:30:43;;;;;;;405.63;122.80;;;-4.80;99.90;;;;;;5015909;28;20537;-85
2021/03/10 00:33:09;;;;;;;360.63;116.40;;;-3.70;99.90;;;;;;5016223;28;20202;-85
2021/03/10 00:35:35;;;;;;;353.70;111.60;;;-4.70;99.90;;;;;;5016249;28;20189;-85
2021/03/10 00:38:01;;;;;;;344.53;108.50;;;-2.50;99.90;;;;;;5015849;28;20719;-85
2021/03/10 00:40:27;;;;;;;315.90;104.43;;;-4.70;99.90;;;;;;5032560;28;20652;-85
2021/03/10 00:42:53;;;;;;;321.37;105.40;;;-4.80;99.90;;;;;;5033513;28;20180;-86
2021/03/10 00:45:19;;;;;;;309.37;100.50;;;-4.70;99.90;;;;;;5033577;28;20210;-86
2021/03/10 00:47:45;;;;;;;287.93;95.17;;;-4.70;99.90;;;;;;5015737;28;20174;-86
2021/03/10 00:50:13;;;;;;;271.07;88.70;;;-4.80;99.90;;;;;;5015862;28;20703;-86
2021/03/10 00:52:39;;;;;;;271.40;92.63;;;-4.80;99.90;;;;;;5015656;28;20535;-86
2021/03/10 00:55:05;;;;;;;249.93;88.33;;;-4.80;99.90;;;;;;5015935;28;20183;-85
2021/03/10 00:57:30;;;;;;;238.67;81.33;;;-4.80;99.90;;;;;;5015650;28;20278;-86
2021/03/10 00:59:56;;;;;;;229.87;82.70;;;-4.80;99.90;;;;;;5032225;28;20650;-86
2021/03/10 01:02:22;;;;;;;259.03;87.17;;;-4.70;99.90;;;;;;4999460;28;20191;-86
2021/03/10 01:04:47;;;;;;;338.80;112.07;;;-4.80;99.90;;;;;;5015547;28;20194;-86
2021/03/10 01:07:13;;;;;;;343.57;111.87;;;-3.20;99.90;;;;;;5031693;28;20222;-85
2021/03/10 01:09:39;;;;;;;333.40;109.93;;;-4.80;99.90;;;;;;5032785;28;20549;-85
2021/03/10 01:12:05;;;;;;;257.57;89.07;;;-4.80;99.90;;;;;;5032944;28;20179;-85
2021/03/10 01:14:30;;;;;;;233.60;84.37;;;-4.80;99.90;;;;;;5015599;28;20191;-86
2021/03/10 01:16:56;;;;;;;263.77;88.10;;;-4.80;99.90;;;;;;5015383;28;20187;-85
2021/03/10 01:19:22;;;;;;;258.03;86.07;;;-4.80;99.90;;;;;;5015739;28;20269;-85
2021/03/10 01:21:47;;;;;;;253.30;85.07;;;-3.50;99.90;;;;;;5015258;28;20182;-85
2021/03/10 01:24:13;;;;;;;254.63;88.70;;;-4.90;99.90;;;;;;5015545;28;20658;-86
2021/03/10 01:26:39;;;;;;;255.30;88.00;;;-4.80;99.90;;;;;;5015374;28;20225;-86
2021/03/10 01:29:04;;;;;;;246.00;80.17;;;-4.80;99.90;;;;;;5015205;28;20218;-87
2021/03/10 01:31:30;;;;;;;260.90;89.13;;;-3.50;99.90;;;;;;5033214;28;20210;-87
2021/03/10 01:33:55;;;;;;;282.13;89.97;;;-4.90;99.90;;;;;;5031775;28;20546;-86
2021/03/10 01:36:21;;;;;;;262.43;87.17;;;-4.90;99.90;;;;;;5031956;28;20231;-86
2021/03/10 01:38:47;;;;;;;233.23;81.17;;;-4.90;99.90;;;;;;5015108;28;20191;-85
2021/03/10 01:41:13;;;;;;;217.03;76.60;;;-4.90;99.90;;;;;;5031935;28;20187;-85
2021/03/10 01:43:39;;;;;;;222.27;76.10;;;-3.70;99.90;;;;;;5015450;28;20195;-85
2021/03/10 01:46:06;;;;;;;218.33;73.60;;;-4.40;99.90;;;;;;5014944;28;20316;-85
2021/03/10 01:48:32;;;;;;;206.17;70.13;;;-4.90;99.90;;;;;;5032715;28;20206;-86
2021/03/10 01:51:01;;;;;;;195.53;72.27;;;-4.90;99.90;;;;;;5014919;28;20297;-86
2021/03/10 01:53:26;;;;;;;212.87;71.73;;;-4.90;99.90;;;;;;5015322;28;20187;-86
2021/03/10 01:55:54;;;;;;;211.60;74.43;;;-4.90;99.90;;;;;;5015042;28;20214;-85
2021/03/10 01:58:20;;;;;;;207.77;75.23;;;-4.00;99.90;;;;;;5015172;28;20185;-85
2021/03/10 02:00:45;;;;;;;248.50;81.20;;;-5.00;99.90;;;;;;4998553;28;20326;-85
2021/03/10 02:03:11;;;;;;;243.57;81.97;;;-5.00;99.90;;;;;;5015175;28;20199;-86
2021/03/10 02:05:36;;;;;;;225.43;80.13;;;-5.00;99.90;;;;;;5015141;28;20216;-86
2021/03/10 02:08:34;;;;;;;223.30;75.13;;;-5.00;99.90;;;;;;5031759;28;20192;-86
2021/03/10 02:11:29;;;;;;;214.57;74.13;;;-5.00;99.90;;;;;;4982417;28;20246;-86
2021/03/10 02:14:07;;;;;;;216.50;78.90;;;-5.00;99.90;;;;;;5032646;28;20165;-86
2021/03/10 02:17:11;;;;;;;232.43;80.30;;;-5.00;99.90;;;;;;5032897;28;20176;-86
2021/03/10 02:20:06;;;;;;;235.73;81.23;;;-5.10;99.90;;;;;;4953995;28;20186;-85
2021/03/10 02:23:13;;;;;;;250.97;82.70;;;-5.10;99.90;;;;;;5036488;28;20168;-85
2021/03/10 02:25:57;;;;;;;262.37;83.50;;;-5.10;99.90;;;;;;4955596;29;20675;-86
2021/03/10 02:28:24;;;;;;;244.87;83.67;;;-5.20;99.90;;;;;;5029401;28;20202;-85
2021/03/10 02:30:55;;;;;;;243.50;83.13;;;-3.40;99.90;;;;;;5018255;28;20314;-86
2021/03/10 02:33:24;;;;;;;249.30;87.17;;;-5.20;99.90;;;;;;5036281;28;20267;-85
2021/03/10 02:36:04;;;;;;;254.57;88.37;;;-5.20;99.90;;;;;;5035876;28;20278;-85
2021/03/10 02:38:30;;;;;;;261.80;87.80;;;-5.10;99.90;;;;;;5035994;28;20181;-85
2021/03/10 02:40:56;;;;;;;267.33;87.93;;;-5.20;99.90;;;;;;5034699;28;20184;-85
2021/03/10 02:43:24;;;;;;;265.87;87.07;;;-4.70;99.90;;;;;;5034581;28;20542;-85
2021/03/10 02:45:51;;;;;;;244.23;89.37;;;-5.30;99.90;;;;;;5017933;28;20302;-84
2021/03/10 02:48:18;;;;;;;244.60;86.30;;;-5.10;99.90;;;;;;5034746;28;20188;-85
2021/03/10 02:50:45;;;;;;;210.03;80.30;;;-5.20;99.90;;;;;;5034687;28;20639;-85
2021/03/10 02:53:11;;;;;;;238.20;83.87;;;-5.20;99.90;;;;;;5017929;28;20204;-85
2021/03/10 02:55:40;;;;;;;229.23;83.83;;;-5.10;99.90;;;;;;5035814;28;20237;-86
2021/03/10 02:58:10;;;;;;;220.70;75.97;;;-5.10;99.90;;;;;;5034328;28;20176;-85
2021/03/10 03:00:36;;;;;;;204.70;73.17;;;-5.20;99.90;;;;;;5017396;28;20243;-86
2021/03/10 03:03:02;;;;;;;204.37;72.63;;;-3.30;99.90;;;;;;5035492;28;20174;-85
2021/03/10 03:05:28;;;;;;;193.67;70.13;;;-5.20;99.90;;;;;;5017860;28;20325;-85
2021/03/10 03:07:54;;;;;;;197.20;72.07;;;-5.20;99.90;;;;;;5035306;28;20578;-84
2021/03/10 03:10:23;;;;;;;207.43;71.30;;;-5.20;99.90;;;;;;5017744;28;20549;-85
2021/03/10 03:12:50;;;;;;;183.63;67.87;;;-5.20;99.90;;;;;;5035444;28;20662;-85
2021/03/10 03:15:19;;;;;;;178.13;64.03;;;-5.20;99.90;;;;;;5034128;28;20189;-85
2021/03/10 03:17:46;;;;;;;182.40;62.63;;;-5.10;99.90;;;;;;5035377;28;20175;-86
2021/03/10 03:20:13;;;;;;;168.03;60.63;;;-5.20;99.90;;;;;;5001271;28;20195;-85
2021/03/10 03:22:43;;;;;;;170.30;59.13;;;-5.20;99.90;;;;;;5034174;28;20267;-86
2021/03/10 03:25:16;;;;;;;140.37;54.23;;;-5.20;99.90;;;;;;5035008;28;20182;-86
2021/03/10 03:27:46;;;;;;;155.20;52.87;;;-5.20;99.90;;;;;;5017441;28;20186;-85
2021/03/10 03:30:14;;;;;;;128.23;49.33;;;-5.20;99.90;;;;;;5017072;28;20189;-85
2021/03/10 03:32:41;;;;;;;127.13;47.20;;;-5.20;99.90;;;;;;5034632;28;20183;-85
2021/03/10 03:35:07;;;;;;;118.80;46.67;;;-5.20;99.90;;;;;;5017066;28;20707;-85
2021/03/10 03:37:33;;;;;;;112.03;44.90;;;-5.20;99.90;;;;;;5017360;28;20189;-85
2021/03/10 03:39:59;;;;;;;114.60;45.73;;;-3.60;99.90;;;;;;5016988;28;20230;-86
2021/03/10 03:42:25;;;;;;;110.40;42.80;;;-5.30;99.90;;;;;;5017202;28;20192;-86
2021/03/10 03:44:50;;;;;;;101.73;40.50;;;-5.20;99.90;;;;;;5017075;28;20219;-86
2021/03/10 03:47:17;;;;;;;108.13;41.00;;;-5.10;99.90;;;;;;5034550;28;20305;-86
2021/03/10 03:49:46;;;;;;;118.57;43.33;;;-5.20;99.90;;;;;;5034566;28;20209;-86
2021/03/10 03:52:13;;;;;;;118.57;47.07;;;-5.20;99.90;;;;;;5034525;28;20262;-85
2021/03/10 03:54:39;;;;;;;142.27;50.43;;;-5.20;99.90;;;;;;5034773;28;20183;-85
2021/03/10 03:57:05;;;;;;;128.93;46.83;;;-5.20;99.90;;;;;;5034643;28;20191;-85
2021/03/10 03:59:30;;;;;;;121.60;42.90;;;-5.20;99.90;;;;;;5033907;28;20692;-85
2021/03/10 04:01:56;;;;;;;94.93;38.17;;;-5.20;99.90;;;;;;5034564;28;20182;-85
2021/03/10 04:04:22;;;;;;;89.17;36.80;;;-5.20;99.90;;;;;;5016565;28;20187;-85
2021/03/10 04:06:51;;;;;;;105.00;42.90;;;-5.20;99.90;;;;;;5016722;28;20210;-85
2021/03/10 04:09:17;;;;;;;118.00;44.43;;;-5.20;99.90;;;;;;5016442;28;20188;-85
2021/03/10 04:11:47;;;;;;;125.63;46.77;;;-4.40;99.90;;;;;;5016556;28;20236;-85
2021/03/10 04:14:14;;;;;;;115.00;44.83;;;-5.30;99.90;;;;;;5034207;28;20174;-85
2021/03/10 04:16:40;;;;;;;116.70;46.63;;;-5.40;99.90;;;;;;5016668;28;20183;-85
2021/03/10 04:19:07;;;;;;;136.33;48.20;;;-5.30;99.90;;;;;;5032856;28;20659;-85
2021/03/10 04:21:33;;;;;;;140.67;54.13;;;-5.30;99.90;;;;;;5016491;28;20594;-89
2021/03/10 04:23:58;;;;;;;168.83;63.30;;;-5.40;99.90;;;;;;5000036;28;20262;-86
2021/03/10 04:26:24;;;;;;;188.77;66.40;;;-4.50;99.90;;;;;;4999547;28;20659;-86
2021/03/10 04:28:50;;;;;;;235.03;78.13;;;-5.40;99.90;;;;;;5032569;28;20196;-87
2021/03/10 04:31:16;;;;;;;199.20;72.23;;;-5.40;99.90;;;;;;5032549;28;20179;-87
2021/03/10 04:33:42;;;;;;;191.73;70.10;;;-2.80;99.90;;;;;;5032661;28;20721;-88
2021/03/10 04:36:08;;;;;;;176.57;66.37;;;-5.40;99.90;;;;;;5032536;28;20183;-87
2021/03/10 04:38:34;;;;;;;225.30;77.00;;;-5.30;99.90;;;;;;5033887;28;20175;-87
2021/03/10 04:41:00;;;;;;;233.97;82.23;;;-5.30;99.90;;;;;;5033591;28;20636;-89
2021/03/10 04:43:25;;;;;;;261.57;91.83;;;-4.60;99.90;;;;;;5015001;28;20190;-87
2021/03/10 04:45:52;;;;;;;221.30;80.90;;;-5.30;99.90;;;;;;5033854;28;20261;-88
2021/03/10 04:48:17;;;;;;;209.50;76.70;;;-5.30;99.90;;;;;;5015781;28;20195;-86
2021/03/10 04:50:43;;;;;;;222.47;79.20;;;-5.20;99.90;;;;;;5015912;28;20285;-85
2021/03/10 04:53:09;;;;;;;198.60;71.17;;;-3.00;99.90;;;;;;5015700;28;20195;-84
2021/03/10 04:55:37;;;;;;;214.37;75.87;;;-5.30;99.90;;;;;;5032443;28;20655;-84
2021/03/10 04:58:03;;;;;;;207.60;72.90;;;-5.40;99.90;;;;;;5032225;28;20184;-84
2021/03/10 05:00:29;;;;;;;194.77;69.50;;;-5.30;99.90;;;;;;5033013;28;20684;-85
2021/03/10 05:02:55;;;;;;;196.10;74.23;;;-5.30;99.90;;;;;;5030715;28;20184;-84
2021/03/10 05:05:21;;;;;;;200.80;74.07;;;-5.30;99.90;;;;;;4993533;28;20226;-83
2021/03/10 05:07:47;;;;;;;204.53;72.97;;;-4.10;99.90;;;;;;5013433;28;20251;-84
2021/03/10 05:10:13;;;;;;;209.43;77.47;;;-5.30;99.90;;;;;;5016256;28;20266;-84
2021/03/10 05:12:40;;;;;;;205.43;73.67;;;-5.20;99.90;;;;;;5013802;28;20183;-84
2021/03/10 05:15:10;;;;;;;204.43;72.93;;;-2.80;99.90;;;;;;5031045;28;20284;-84
2021/03/10 05:17:36;;;;;;;217.90;76.50;;;-5.20;99.90;;;;;;5013216;28;20184;-84
2021/03/10 05:20:05;;;;;;;218.23;75.80;;;-5.30;99.90;;;;;;5031207;28;20183;-84
2021/03/10 05:22:32;;;;;;;205.40;73.40;;;-5.30;99.90;;;;;;5030533;28;20193;-84
2021/03/10 05:24:57;;;;;;;211.13;76.90;;;-5.30;99.90;;;;;;5013328;28;20621;-84
2021/03/10 05:27:25;;;;;;;198.20;74.63;;;-4.00;99.90;;;;;;5012965;28;20234;-84
2021/03/10 05:29:51;;;;;;;202.73;72.17;;;-5.40;99.90;;;;;;5031439;28;20262;-85
2021/03/10 05:32:17;;;;;;;178.77;67.43;;;-5.30;99.90;;;;;;5031084;28;20201;-86
2021/03/10 05:34:42;;;;;;;190.90;63.50;;;-4.70;99.90;;;;;;5014860;28;20220;-86
2021/03/10 05:37:08;;;;;;;186.20;66.67;;;-5.40;99.90;;;;;;5012671;28;20193;-84
2021/03/10 05:39:34;;;;;;;184.30;71.60;;;-3.60;99.90;;;;;;5015698;28;20642;-86
2021/03/10 05:41:59;;;;;;;214.73;75.10;;;-5.20;99.90;;;;;;5029725;28;20543;-86
2021/03/10 05:44:26;;;;;;;260.03;91.50;;;-5.30;99.90;;;;;;5015045;28;20652;-87
2021/03/10 05:46:53;;;;;;;265.60;86.53;;;-5.30;99.90;;;;;;5012868;28;20245;-85
2021/03/10 05:49:20;;;;;;;267.83;85.70;;;-3.00;99.90;;;;;;5012785;28;20206;-85
2021/03/10 05:51:45;;;;;;;210.33;73.17;;;-5.20;99.90;;;;;;5029410;28;20191;-85
2021/03/10 05:54:13;;;;;;;196.93;67.27;;;-5.10;99.90;;;;;;5013352;28;20670;-84
2021/03/10 05:56:43;;;;;;;163.90;60.40;;;-3.60;99.90;;;;;;5016757;28;20187;-84
2021/03/10 05:59:09;;;;;;;180.87;63.53;;;-4.90;99.90;;;;;;5016365;28;20699;-84
2021/03/10 06:01:34;;;;;;;188.67;64.70;;;-4.90;99.90;;;;;;5016279;28;20190;-85
2021/03/10 06:04:03;;;;;;;159.70;61.40;;;-4.90;99.90;;;;;;5033691;28;20632;-84
2021/03/10 06:06:39;;;;;;;160.30;62.17;;;-3.40;99.90;;;;;;5033365;28;20206;-85
2021/03/10 06:09:15;;;;;;;184.37;67.33;;;-3.40;99.90;;;;;;5032320;28;20238;-85
2021/03/10 06:12:03;;;;;;;190.47;70.67;;;-4.80;99.90;;;;;;5033949;28;20239;-84
2021/03/10 06:14:32;;;;;;;197.03;71.60;;;-4.70;99.90;;;;;;5015362;28;20196;-85
2021/03/10 06:17:08;;;;;;;203.77;73.57;;;-2.80;99.90;;;;;;5032621;28;20188;-88
2021/03/10 06:19:48;;;;;;;204.60;74.50;;;-4.70;99.90;;;;;;5033636;28;20209;-87
2021/03/10 06:22:15;;;;;;;208.30;75.20;;;-3.20;99.90;;;;;;5014695;28;20241;-89
2021/03/10 06:24:41;;;;;;;213.83;76.57;;;-4.50;99.90;;;;;;5016125;28;20211;-86
2021/03/10 06:27:08;;;;;;;223.67;82.37;;;-4.50;99.90;;;;;;5033313;28;20202;-88
2021/03/10 06:29:33;;;;;;;223.90;80.00;;;-4.40;99.90;;;;;;5017680;28;20194;-85
2021/03/10 06:32:04;;;;;;;193.53;71.33;;;-4.40;99.90;;;;;;5017842;28;20213;-85
2021/03/10 06:34:41;;;;;;;190.23;73.43;;;-4.30;99.90;;;;;;5017468;28;20187;-87
2021/03/10 06:37:06;;;;;;;227.33;85.97;;;-4.20;99.90;;;;;;5017986;28;20655;-87
2021/03/10 06:39:32;;;;;;;187.27;71.97;;;-4.10;99.90;;;;;;5034969;28;20215;-87
2021/03/10 06:41:58;;;;;;;152.83;59.57;;;-4.00;99.90;;;;;;5017519;28;20676;-87
2021/03/10 06:44:26;;;;;;;153.23;60.43;;;-3.90;99.90;;;;;;5003888;28;20192;-88
2021/03/10 06:46:55;;;;;;;136.37;51.53;;;-3.80;99.90;;;;;;5041588;28;20303;-87
2021/03/10 06:49:21;;;;;;;121.97;44.43;;;-3.70;99.90;;;;;;5035301;28;20185;-87
2021/03/10 06:52:00;;;;;;;130.37;49.10;;;-2.10;99.90;;;;;;5035155;28;20630;-88
2021/03/10 06:54:27;;;;;;;147.33;51.70;;;-3.40;99.90;;;;;;5022199;28;20180;-86
2021/03/10 06:57:01;;;;;;;133.87;47.30;;;-1.70;99.90;;;;;;5034835;28;20189;-86
2021/03/10 06:59:57;;;;;;;127.30;45.90;;;-2.50;99.90;;;;;;5034653;28;20255;-86
2021/03/10 07:02:32;;;;;;;59.87;23.67;;;-1.20;99.90;;;;;;5034094;28;20659;-88
2021/03/10 07:04:59;;;;;;;65.27;24.13;;;-2.70;99.90;;;;;;5039086;28;20190;-88
2021/03/10 07:07:30;;;;;;;73.57;26.33;;;-2.50;99.90;;;;;;5042004;28;20286;-86
2021/03/10 07:09:56;;;;;;;45.73;20.63;;;-2.40;99.90;;;;;;5034579;28;20543;-86
2021/03/10 07:12:26;;;;;;;50.20;22.50;;;-0.70;99.90;;;;;;5016943;28;20225;-86
2021/03/10 07:14:52;;;;;;;50.83;19.63;;;-1.90;99.90;;;;;;5017041;28;20175;-86
2021/03/10 07:17:19;;;;;;;47.10;18.77;;;-0.90;99.90;;;;;;5034584;28;20583;-86
2021/03/10 07:19:46;;;;;;;38.63;17.50;;;-0.70;99.90;;;;;;5034652;28;20180;-87
2021/03/10 07:22:14;;;;;;;37.30;17.17;;;-0.10;99.90;;;;;;5016419;28;20238;-86
2021/03/10 07:24:49;;;;;;;38.40;18.23;;;-1.10;99.90;;;;;;5016202;28;20184;-87
2021/03/10 07:27:17;;;;;;;44.93;20.33;;;-1.70;99.90;;;;;;5016683;28;20212;-87
2021/03/10 07:29:43;;;;;;;42.23;17.57;;;0.00;99.90;;;;;;5034236;28;20180;-86
2021/03/10 07:32:10;;;;;;;92.07;29.43;;;0.00;99.90;;;;;;5034112;28;20257;-87
2021/03/10 07:34:37;;;;;;;42.77;18.17;;;-1.40;99.90;;;;;;5034276;28;20182;-87
2021/03/10 07:37:13;;;;;;;75.80;24.40;;;0.00;99.90;;;;;;5019354;28;20191;-88
2021/03/10 07:39:38;;;;;;;34.50;14.73;;;-1.30;99.90;;;;;;5036467;28;20189;-88
2021/03/10 07:42:11;;;;;;;29.70;14.33;;;-1.20;99.90;;;;;;5019186;28;20184;-87
2021/03/10 07:44:37;;;;;;;37.57;16.67;;;-1.30;99.90;;;;;;5026917;28;20184;-87
2021/03/10 07:47:14;;;;;;;39.63;18.27;;;0.30;99.90;;;;;;5024906;28;20210;-88
2021/03/10 07:49:41;;;;;;;32.87;16.40;;;-1.10;99.90;;;;;;5048515;28;20183;-87
2021/03/10 07:52:12;;;;;;;39.23;16.97;;;-1.10;99.90;;;;;;5053809;28;20543;-87
2021/03/10 07:54:39;;;;;;;31.73;14.90;;;-0.90;99.90;;;;;;5054274;28;20180;-87
2021/03/10 07:57:12;;;;;;;32.77;13.97;;;-0.80;99.90;;;;;;5053979;28;20198;-87
2021/03/10 07:59:50;;;;;;;36.47;13.83;;;0.20;99.90;;;;;;5029480;28;20216;-88
2021/03/10 08:02:16;;;;;;;33.60;15.73;;;-0.70;99.90;;;;;;5036209;28;20180;-89
2021/03/10 08:05:01;;;;;;;27.70;12.77;;;0.00;99.90;;;;;;5035821;28;20600;-87
2021/03/10 08:07:30;;;;;;;26.73;13.60;;;-0.60;99.90;;;;;;5035711;28;20214;-88
2021/03/10 08:09:57;;;;;;;28.37;12.33;;;0.40;99.90;;;;;;5032168;28;20183;-87
2021/03/10 08:12:36;;;;;;;28.80;13.43;;;0.00;99.90;;;;;;5023835;28;20181;-87
2021/03/10 08:15:04;;;;;;;27.83;11.47;;;-0.20;99.90;;;;;;5043934;28;20168;-87
2021/03/10 08:17:30;;;;;;;23.30;10.37;;;-0.30;99.90;;;;;;5042794;28;20199;-87
2021/03/10 08:20:03;;;;;;;22.47;10.30;;;-0.20;99.90;;;;;;5042278;28;20214;-86
2021/03/10 08:22:31;;;;;;;16.80;8.60;;;-0.10;99.90;;;;;;5040720;28;20227;-85
2021/03/10 08:25:01;;;;;;;17.10;8.13;;;1.90;99.90;;;;;;5023941;28;20199;-85
2021/03/10 08:27:36;;;;;;;19.63;9.43;;;1.10;99.90;;;;;;5040403;28;20192;-87
2021/03/10 08:30:06;;;;;;;16.87;8.60;;;1.20;99.60;;;;;;5050695;28;20719;-87
2021/03/10 08:32:32;;;;;;;24.63;11.13;;;0.20;99.90;;;;;;5017166;28;20180;-88
2021/03/10 08:35:12;;;;;;;21.57;10.57;;;0.80;97.50;;;;;;5015810;28;20641;-87
2021/03/10 08:37:38;;;;;;;17.23;7.80;;;0.30;96.30;;;;;;5014956;28;20230;-86
2021/03/10 08:40:06;;;;;;;27.87;8.93;;;0.40;95.20;;;;;;5031763;28;20202;-86
2021/03/10 08:42:32;;;;;;;20.63;7.93;;;0.40;89.50;;;;;;5033831;28;20187;-84
2021/03/10 08:44:58;;;;;;;18.67;9.17;;;2.00;86.60;;;;;;5034228;28;20610;-85
2021/03/10 08:47:26;;;;;;;19.00;8.37;;;1.80;85.30;;;;;;5016451;28;20212;-86
2021/03/10 08:49:54;;;;;;;18.50;8.80;;;1.80;80.30;;;;;;5033769;28;20649;-84
2021/03/10 08:52:21;;;;;;;20.37;10.30;;;0.60;82.50;;;;;;5033241;28;20191;-87
2021/03/10 08:54:51;;;;;;;18.50;9.73;;;2.40;83.50;;;;;;5013781;28;20172;-86
2021/03/10 08:57:19;;;;;;;17.83;7.57;;;0.80;80.10;;;;;;5014554;28;20616;-86
2021/03/10 08:59:45;;;;;;;13.43;7.13;;;2.00;78.90;;;;;;5013685;28;20259;-85
2021/03/10 09:02:12;;;;;;;15.00;6.87;;;1.60;77.20;;;;;;5014048;28;20211;-84
2021/03/10 09:04:45;;;;;;;12.97;7.23;;;2.20;77.50;;;;;;5031733;28;20195;-84
2021/03/10 09:07:10;;;;;;;15.53;7.23;;;1.00;76.00;;;;;;5032566;28;20200;-84
2021/03/10 09:09:36;;;;;;;9.50;6.10;;;2.60;77.30;;;;;;5033496;28;20181;-85
2021/03/10 09:12:02;;;;;;;13.27;6.60;;;2.50;68.50;;;;;;5016348;28;20187;-87
2021/03/10 09:14:28;;;;;;;12.47;6.27;;;1.00;68.60;;;;;;5015808;28;20267;-86
2021/03/10 09:16:57;;;;;;;14.50;6.83;;;1.10;62.50;;;;;;5015364;28;20623;-88
2021/03/10 09:19:31;;;;;;;12.53;6.33;;;1.20;63.60;;;;;;5033092;28;20659;-87
2021/03/10 09:22:14;;;;;;;21.97;7.77;;;3.40;68.60;;;;;;5033109;28;20191;-87
2021/03/10 09:24:52;;;;;;;16.80;7.77;;;1.30;62.80;;;;;;5033078;28;20283;-87
2021/03/10 09:27:24;;;;;;;15.37;7.20;;;2.70;64.70;;;;;;5015627;28;20215;-86
2021/03/10 09:29:52;;;;;;;13.90;6.00;;;1.70;61.00;;;;;;5032345;28;20183;-86
2021/03/10 09:32:18;;;;;;;12.37;6.27;;;1.90;60.80;;;;;;5032986;28;20172;-86
2021/03/10 09:34:52;;;;;;;12.33;6.67;;;1.90;59.00;;;;;;5032762;28;20238;-86
2021/03/10 09:37:23;;;;;;;8.97;5.47;;;1.90;59.50;;;;;;5032622;28;20263;-87
2021/03/10 09:39:51;;;;;;;9.30;5.43;;;1.90;56.80;;;;;;5030905;28;20169;-89
2021/03/10 09:42:17;;;;;;;15.17;6.67;;;2.70;57.20;;;;;;5030970;28;20196;-87
2021/03/10 09:44:46;;;;;;;13.23;7.27;;;3.00;59.60;;;;;;5013092;28;20235;-87
2021/03/10 09:47:18;;;;;;;11.50;6.70;;;3.20;59.30;;;;;;5031772;28;20208;-87
2021/03/10 09:49:55;;;;;;;18.30;7.83;;;2.10;58.80;;;;;;5014924;28;20201;-88
2021/03/10 09:52:50;;;;;;;20.17;7.97;;;2.20;57.20;;;;;;5032927;28;20168;-89
2021/03/10 09:55:20;;;;;;;10.13;6.53;;;2.30;56.90;;;;;;5027006;28;20189;-91
2021/03/10 09:57:46;;;;;;;10.63;5.97;;;2.40;52.90;;;;;;5020714;28;20580;-90
2021/03/10 10:00:20;;;;;;;10.00;6.63;;;3.00;54.10;;;;;;5026288;28;20228;-89
2021/03/10 10:02:46;;;;;;;14.03;6.83;;;2.10;56.70;;;;;;5024813;28;20183;-91
2021/03/10 10:05:25;;;;;;;10.40;5.63;;;3.90;57.20;;;;;;5044097;28;20709;-91
2021/03/10 10:07:51;;;;;;;11.07;6.37;;;3.20;55.90;;;;;;5023711;28;20590;-90
2021/03/10 10:10:18;;;;;;;11.17;6.03;;;2.70;54.50;;;;;;5039020;28;20183;-89
2021/03/10 10:12:49;;;;;;;11.43;5.93;;;2.80;51.70;;;;;;5046507;28;20186;-89
2021/03/10 10:15:27;;;;;;;11.23;6.63;;;2.90;54.70;;;;;;5043440;28;20167;-90
2021/03/10 10:17:55;;;;;;;15.07;8.13;;;2.70;52.40;;;;;;5041669;28;20629;-90
2021/03/10 10:20:30;;;;;;;12.57;6.87;;;2.80;53.90;;;;;;5023533;28;20236;-91
2021/03/10 10:22:56;;;;;;;15.57;7.73;;;2.50;53.30;;;;;;5041501;28;20523;-90
2021/03/10 10:25:22;;;;;;;10.60;6.60;;;2.30;53.70;;;;;;5031341;28;20177;-90
2021/03/10 10:27:49;;;;;;;12.43;6.73;;;2.20;53.30;;;;;;5025606;28;20252;-91
2021/03/10 10:30:17;;;;;;;13.93;6.83;;;2.60;52.40;;;;;;5024462;28;20181;-89
2021/03/10 10:32:45;;;;;;;12.93;7.07;;;2.70;52.00;;;;;;5022722;28;20185;-88
2021/03/10 10:35:14;;;;;;;12.97;7.20;;;4.30;53.80;;;;;;5043757;28;20634;-88
2021/03/10 10:37:41;;;;;;;11.80;5.97;;;4.30;51.70;;;;;;5052545;28;20258;-85
2021/03/10 10:40:08;;;;;;;10.23;5.93;;;3.90;49.50;;;;;;5052016;28;20176;-87
2021/03/10 10:42:35;;;;;;;10.60;5.90;;;3.50;49.50;;;;;;5045926;28;20182;-86
2021/03/10 10:45:01;;;;;;;12.73;5.83;;;3.50;47.90;;;;;;5027379;28;20179;-88
2021/03/10 10:47:26;;;;;;;10.13;7.07;;;3.50;47.60;;;;;;5020178;28;20203;-86
2021/03/10 10:49:53;;;;;;;13.50;7.23;;;3.60;49.40;;;;;;5017403;28;20190;-86
2021/03/10 10:52:20;;;;;;;12.70;7.20;;;3.90;50.70;;;;;;5017377;28;20179;-85
2021/03/10 10:54:46;;;;;;;11.13;6.50;;;4.90;49.60;;;;;;5019385;28;20182;-87
2021/03/10 10:57:12;;;;;;;10.37;6.67;;;3.90;48.80;;;;;;5037193;28;20187;-86
2021/03/10 10:59:38;;;;;;;13.23;7.63;;;3.70;49.80;;;;;;5038124;28;20264;-86
2021/03/10 11:02:04;;;;;;;13.87;7.70;;;3.90;50.10;;;;;;5057772;28;20194;-86
2021/03/10 11:04:30;;;;;;;12.03;6.93;;;3.90;48.50;;;;;;5037345;28;20194;-86
2021/03/10 11:06:55;;;;;;;17.07;7.93;;;3.80;50.30;;;;;;5036632;28;20204;-86
2021/03/10 11:09:22;;;;;;;12.67;7.33;;;4.30;50.20;;;;;;5036771;28;20214;-86
2021/03/10 11:11:49;;;;;;;11.30;7.70;;;3.70;51.10;;;;;;5055602;28;20179;-87
2021/03/10 11:14:15;;;;;;;9.33;6.63;;;3.80;50.40;;;;;;5038094;28;20179;-86
2021/03/10 11:16:40;;;;;;;15.27;7.10;;;3.70;49.10;;;;;;5036855;28;20665;-86
2021/03/10 11:19:06;;;;;;;14.00;6.77;;;3.90;48.70;;;;;;5054311;28;20206;-87
2021/03/10 11:21:32;;;;;;;10.53;6.17;;;3.70;49.40;;;;;;5038514;28;20192;-87
2021/03/10 11:23:57;;;;;;;12.33;6.97;;;3.80;47.80;;;;;;5054260;28;20187;-86
2021/03/10 11:26:23;;;;;;;15.33;7.63;;;4.00;48.10;;;;;;5036545;28;20360;-86
2021/03/10 11:28:49;;;;;;;15.37;7.33;;;4.00;49.30;;;;;;5054158;28;20192;-87
2021/03/10 11:31:14;;;;;;;13.80;7.53;;;4.90;48.30;;;;;;5036224;28;20193;-87
2021/03/10 11:33:40;;;;;;;9.43;6.30;;;3.80;47.50;;;;;;5036551;28;20182;-88
2021/03/10 11:36:07;;;;;;;10.93;6.83;;;3.80;48.40;;;;;;5036061;28;20205;-86
2021/03/10 11:38:33;;;;;;;10.37;7.00;;;3.90;47.90;;;;;;5054777;28;20259;-87
2021/03/10 11:40:59;;;;;;;12.03;6.53;;;4.00;47.90;;;;;;5050363;28;20715;-85
2021/03/10 11:43:24;;;;;;;12.80;6.83;;;4.70;48.00;;;;;;5024495;28;20193;-86
2021/03/10 11:45:50;;;;;;;11.47;6.97;;;3.70;46.90;;;;;;5045976;28;20209;-87
2021/03/10 11:48:16;;;;;;;13.87;7.23;;;3.70;48.00;;;;;;5028089;28;20236;-86
2021/03/10 11:50:42;;;;;;;12.57;6.97;;;3.90;47.80;;;;;;5009643;28;20189;-85
2021/03/10 11:53:08;;;;;;;19.00;8.80;;;3.90;48.20;;;;;;5024456;28;20212;-86
2021/03/10 11:55:34;;;;;;;13.83;8.10;;;3.90;48.30;;;;;;5026842;28;20186;-86
2021/03/10 11:58:00;;;;;;;12.83;7.80;;;4.00;47.40;;;;;;5026906;28;20268;-86
2021/03/10 12:00:27;;;;;;;12.63;7.80;;;4.10;46.50;;;;;;5048144;28;20305;-85
2021/03/10 12:02:52;;;;;;;13.50;8.20;;;4.10;47.20;;;;;;5042393;28;20241;-88
2021/03/10 12:05:18;;;;;;;11.43;7.50;;;4.00;45.50;;;;;;5024781;28;20704;-86
2021/03/10 12:07:45;;;;;;;12.73;7.43;;;3.70;46.00;;;;;;5044587;28;20265;-87
2021/03/10 12:10:12;;;;;;;13.67;6.90;;;4.50;47.50;;;;;;5024482;28;20238;-87
2021/03/10 12:12:38;;;;;;;32.77;13.43;;;3.60;46.10;;;;;;5028011;28;20179;-88
2021/03/10 12:15:05;;;;;;;24.87;11.67;;;3.50;46.70;;;;;;5011087;28;20188;-88
2021/03/10 12:17:31;;;;;;;31.53;13.40;;;3.10;46.30;;;;;;5042859;28;20213;-88
2021/03/10 12:19:57;;;;;;;19.37;9.00;;;2.90;46.80;;;;;;5025950;28;20180;-86
2021/03/10 12:22:22;;;;;;;10.97;6.50;;;2.90;47.30;;;;;;5026202;28;20648;-88
2021/03/10 12:24:48;;;;;;;29.17;13.33;;;2.80;47.30;;;;;;5042527;28;20267;-87
2021/03/10 12:27:23;;;;;;;18.17;9.13;;;2.70;47.60;;;;;;5026074;28;20208;-87
2021/03/10 12:29:50;;;;;;;16.60;8.30;;;2.30;47.90;;;;;;5044665;28;20168;-86
2021/03/10 12:32:16;;;;;;;16.73;8.40;;;2.20;47.90;;;;;;5042584;28;20519;-87
2021/03/10 12:34:41;;;;;;;12.80;6.77;;;2.40;47.90;;;;;;5043078;28;20186;-86